Terminal Aerodrome Forecast
Issued by NWS Sioux Falls, SD

Home | Current Version | Previous Version | Graphics & Text | Print | Product List | Glossary On
Versions: 1 2 3 4 5 6 7 8 9 10 11 12 13
000
FTUS43 KFSD 271142
TAFHON
TAF
KHON 271142Z 2712/2812 19008KT P6SM -SHRA SCT080 OVC120
     FM271400 12010KT P6SM BKN120
     FM272200 08011KT 4SM SHRA BKN035 OVC110
     FM280300 07012KT 6SM -SHRA BKN025
     FM280900 01009KT 2SM BR OVC007=

USA.gov is the U.S. government's official web portal to all federal, state and local government web resources and services.